createdAt,value
2023-05-13T00:02:08.351Z,97360.63
2023-05-13T00:06:11.055Z,97372.03
2023-05-13T00:10:14.177Z,97368.91
2023-05-13T00:14:18.131Z,97374.91
2023-05-13T00:18:20.798Z,97380.31
2023-05-13T00:22:23.407Z,97377.19
2023-05-13T00:26:26.233Z,97375.13
2023-05-13T00:30:30.245Z,97373.44
2023-05-13T00:34:33.064Z,97376.97
2023-05-13T00:38:35.685Z,97380.28
2023-05-13T00:42:38.293Z,97372.38
2023-05-13T00:46:42.714Z,97379.22
2023-05-13T00:50:45.545Z,97377.38
2023-05-13T00:54:48.142Z,97383.78
2023-05-13T00:58:50.874Z,97377.16
2023-05-13T01:03:06.155Z,97378.84
2023-05-13T01:07:15.332Z,97383.38
2023-05-13T01:11:22.868Z,97387.94
2023-05-13T01:15:27.202Z,97378.59
2023-05-13T01:19:43.039Z,97379.84
2023-05-13T01:23:46.975Z,97379.00
2023-05-13T01:27:49.763Z,97386.06
2023-05-13T01:31:53.435Z,97374.66
2023-05-13T01:35:56.239Z,97377.75
2023-05-13T01:40:00.760Z,97384.81
2023-05-13T01:44:03.550Z,97375.03
2023-05-13T01:48:06.852Z,97373.19
2023-05-13T01:52:09.608Z,97374.03
2023-05-13T01:56:13.547Z,97383.13
2023-05-13T02:00:17.135Z,97383.56
2023-05-13T02:04:19.752Z,97385.63
2023-05-13T02:08:23.615Z,97387.31
2023-05-13T02:12:27.934Z,97378.38
2023-05-13T02:16:32.120Z,97381.91
2023-05-13T02:20:34.718Z,97381.69
2023-05-13T02:24:40.490Z,97392.47
2023-05-13T02:28:44.480Z,97385.44
2023-05-13T02:32:47.203Z,97394.38
2023-05-13T02:36:49.843Z,97385.88
2023-05-13T02:40:52.497Z,97386.69
2023-05-13T02:44:56.436Z,97387.31
2023-05-13T02:48:59.392Z,97391.69
2023-05-13T02:53:02.132Z,97391.88
2023-05-13T02:57:05.009Z,97381.91
2023-05-13T03:01:08.989Z,97387.94
2023-05-13T03:05:11.608Z,97386.69
2023-05-13T03:09:14.217Z,97390.00
2023-05-13T03:13:16.897Z,97394.81
2023-05-13T03:17:20.990Z,97402.47
2023-05-13T03:21:23.657Z,97394.19
2023-05-13T03:25:26.368Z,97402.28
2023-05-13T03:29:28.972Z,97394.19
2023-05-13T03:33:32.954Z,97405.41
2023-05-13T03:37:35.559Z,97408.91
2023-05-13T03:41:38.226Z,97396.06
2023-05-13T03:45:40.809Z,97404.97
2023-05-13T03:49:44.761Z,97408.09
2023-05-13T03:53:47.343Z,97406.22
2023-05-13T03:57:50.687Z,97409.78
2023-05-13T04:01:53.435Z,97411.03
2023-05-13T04:05:57.433Z,97413.28
2023-05-13T04:10:00.023Z,97407.75
2023-05-13T04:14:02.648Z,97408.16
2023-05-13T04:18:05.423Z,97418.31
2023-05-13T04:22:09.450Z,97421.22
2023-05-13T04:26:12.445Z,97427.25
2023-05-13T04:30:15.955Z,97426.84
2023-05-13T04:34:18.541Z,97429.97
2023-05-13T04:38:22.537Z,97429.97
2023-05-13T04:42:25.248Z,97442.00
2023-05-13T04:46:27.885Z,97432.03
2023-05-13T04:50:30.875Z,97432.25
2023-05-13T04:54:36.005Z,97440.97
2023-05-13T04:58:38.600Z,97439.94
2023-05-13T05:02:41.292Z,97434.75
2023-05-13T05:06:43.895Z,97438.50
2023-05-13T05:10:47.879Z,97442.25
2023-05-13T05:14:50.484Z,97448.91
2023-05-13T05:18:53.127Z,97460.75
2023-05-13T05:22:56.187Z,97451.59
2023-05-13T05:27:00.260Z,97455.31
2023-05-13T05:31:03.043Z,97452.00
2023-05-13T05:35:06.439Z,97461.75
2023-05-13T05:39:09.088Z,97452.44
2023-05-13T05:43:14.070Z,97459.28
2023-05-13T05:47:16.646Z,97452.41
2023-05-13T05:51:19.236Z,97463.41
2023-05-13T05:55:22.265Z,97462.34
2023-05-13T05:59:26.467Z,97457.75
2023-05-13T06:03:29.249Z,97461.69
2023-05-13T06:07:31.951Z,97460.84
2023-05-13T06:11:34.564Z,97461.88
2023-05-13T06:15:39.354Z,97452.28
2023-05-13T06:19:42.875Z,97452.50
2023-05-13T06:23:45.623Z,97457.66
2023-05-13T06:27:48.212Z,97460.56
2023-05-13T06:31:52.254Z,97465.56
2023-05-13T06:35:54.911Z,97468.44
2023-05-13T06:39:58.251Z,97472.56
2023-05-13T06:44:00.872Z,97470.47
2023-05-13T06:48:04.909Z,97463.81
2023-05-13T06:52:08.766Z,97467.97
2023-05-13T06:56:11.408Z,97478.97
2023-05-13T07:00:15.036Z,97478.09
2023-05-13T07:04:19.214Z,97478.47
2023-05-13T07:08:22.026Z,97466.97
2023-05-13T07:12:25.079Z,97484.16
2023-05-13T07:16:27.688Z,97487.22
2023-05-13T07:20:31.747Z,97482.78
2023-05-13T07:24:34.573Z,97494.97
2023-05-13T07:28:37.310Z,97482.03
2023-05-13T07:32:41.052Z,97477.22
2023-05-13T07:36:45.493Z,97484.31
2023-05-13T07:40:48.112Z,97479.31
2023-05-13T07:44:50.888Z,97483.16
2023-05-13T07:48:53.950Z,97484.84
2023-05-13T07:52:57.927Z,97491.56
2023-05-13T07:57:00.536Z,97490.84
2023-05-13T08:01:04.111Z,97484.16
2023-05-13T08:05:08.080Z,97485.03
2023-05-13T08:09:12.575Z,97491.25
2023-05-13T08:13:15.275Z,97484.63
2023-05-13T08:17:18.890Z,97478.19
2023-05-13T08:21:21.536Z,97488.75
2023-05-13T08:25:25.740Z,97489.63
2023-05-13T08:29:28.927Z,97487.91
2023-05-13T08:33:31.904Z,97498.53
2023-05-13T08:37:34.514Z,97495.22
2023-05-13T08:41:39.079Z,97491.75
2023-05-13T08:45:42.848Z,97488.66
2023-05-13T08:49:46.502Z,97502.28
2023-05-13T08:53:49.852Z,97502.63
2023-05-13T08:57:54.770Z,97503.81
2023-05-13T09:02:00.246Z,97502.16
2023-05-13T09:06:03.219Z,97504.69
2023-05-13T09:10:06.886Z,97505.56
2023-05-13T09:14:12.242Z,97511.03
2023-05-13T09:18:18.670Z,97503.88
2023-05-13T09:22:21.932Z,97507.13
2023-05-13T09:26:28.167Z,97505.78
2023-05-13T09:30:34.949Z,97509.41
2023-05-13T09:34:37.591Z,97514.13
2023-05-13T09:38:40.234Z,97511.50
2023-05-13T09:42:44.082Z,97508.00
2023-05-13T09:46:49.334Z,97510.25
2023-05-13T09:50:52.547Z,97515.66
2023-05-13T09:54:57.499Z,97511.66
2023-05-13T09:59:00.172Z,97509.19
2023-05-13T10:03:06.109Z,97502.56
2023-05-13T10:07:10.654Z,97498.94
2023-05-13T10:11:15.827Z,97492.88
2023-05-13T10:15:19.086Z,97496.41
2023-05-13T10:19:24.263Z,97498.19
2023-05-13T10:23:27.282Z,97496.31
2023-05-13T10:27:30.918Z,97505.63
2023-05-13T10:31:34.070Z,97490.56
2023-05-13T10:35:42.995Z,97487.44
2023-05-13T10:40:07.574Z,97483.06
2023-05-13T10:44:10.459Z,97482.59
2023-05-13T10:48:16.006Z,97486.13
2023-05-13T10:52:20.826Z,97487.47
2023-05-13T10:56:25.247Z,97479.63
2023-05-13T11:00:32.530Z,97484.09
2023-05-13T11:04:35.148Z,97486.44
2023-05-13T11:08:40.490Z,97492.13
2023-05-13T11:12:43.145Z,97488.38
2023-05-13T11:16:53.268Z,97485.78
2023-05-13T11:20:56.463Z,97495.47
2023-05-13T11:25:09.093Z,97488.97
2023-05-13T11:29:11.748Z,97491.78
2023-05-13T11:33:14.383Z,97483.16
2023-05-13T11:37:17.304Z,97476.03
2023-05-13T11:41:22.400Z,97485.47
2023-05-13T11:45:26.957Z,97480.91
2023-05-13T11:49:37.448Z,97483.06
2023-05-13T11:53:40.163Z,97489.81
2023-05-13T11:57:49.356Z,97486.34
2023-05-13T12:02:02.100Z,97484.13
2023-05-13T12:06:05.759Z,97479.84
2023-05-13T12:10:09.196Z,97473.94
2023-05-13T12:14:13.290Z,97474.56
2023-05-13T12:18:16.566Z,97483.25
2023-05-13T12:22:22.624Z,97482.25
2023-05-13T12:26:25.406Z,97490.41
2023-05-13T12:30:34.930Z,97489.13
2023-05-13T12:34:38.912Z,97487.88
2023-05-13T12:38:54.335Z,97491.69
2023-05-13T12:42:58.819Z,97499.34
2023-05-13T12:47:03.597Z,97491.16
2023-05-13T12:51:06.419Z,97493.25
2023-05-13T12:55:10.126Z,97492.38
2023-05-13T12:59:13.441Z,97486.59
2023-05-13T13:03:17.568Z,97484.50
2023-05-13T13:07:20.299Z,97482.47
2023-05-13T13:11:23.163Z,97481.91
2023-05-13T13:15:25.812Z,97491.00
2023-05-13T13:19:29.791Z,97484.16
2023-05-13T13:23:32.430Z,97487.38
2023-05-13T13:27:35.910Z,97476.69
2023-05-13T13:31:38.542Z,97471.31
2023-05-13T13:35:44.260Z,97467.44
2023-05-13T13:39:46.841Z,97469.00
2023-05-13T13:43:49.481Z,97468.41
2023-05-13T13:47:52.263Z,97474.88
2023-05-13T13:51:56.279Z,97466.13
2023-05-13T13:55:58.908Z,97469.94
2023-05-13T14:00:01.593Z,97466.63
2023-05-13T14:04:15.029Z,97459.88
2023-05-13T14:08:18.980Z,97460.81
2023-05-13T14:12:21.597Z,97459.78
2023-05-13T14:16:24.527Z,97460.09
2023-05-13T14:20:28.906Z,97456.63
2023-05-13T14:24:33.052Z,97458.69
2023-05-13T14:28:36.054Z,97454.72
2023-05-13T14:32:38.786Z,97460.09
2023-05-13T14:36:41.447Z,97460.91
2023-05-13T14:40:45.468Z,97456.47
2023-05-13T14:44:48.083Z,97457.38
2023-05-13T14:48:50.685Z,97451.09
2023-05-13T14:52:53.367Z,97449.75
2023-05-13T14:56:57.323Z,97452.91
2023-05-13T15:00:59.944Z,97442.31
2023-05-13T15:05:02.721Z,97434.22
2023-05-13T15:09:05.802Z,97438.34
2023-05-13T15:13:09.847Z,97442.28
2023-05-13T15:17:13.146Z,97440.84
2023-05-13T15:21:16.873Z,97429.72
2023-05-13T15:25:19.796Z,97431.22
2023-05-13T15:29:23.751Z,97422.66
2023-05-13T15:33:27.319Z,97428.06
2023-05-13T15:37:29.914Z,97435.84
2023-05-13T15:41:32.503Z,97427.50
2023-05-13T15:45:36.925Z,97426.44
2023-05-13T15:49:39.576Z,97415.03
2023-05-13T15:53:42.176Z,97423.81
2023-05-13T15:57:44.828Z,97425.59
2023-05-13T16:01:48.920Z,97418.28
2023-05-13T16:05:51.978Z,97416.97
2023-05-13T16:09:54.591Z,97411.91
2023-05-13T16:13:57.331Z,97403.63
2023-05-13T16:18:01.288Z,97395.91
2023-05-13T16:22:25.188Z,97399.38
2023-05-13T16:26:27.839Z,97388.56
2023-05-13T16:30:30.798Z,97385.97
2023-05-13T16:34:34.843Z,97382.06
2023-05-13T16:38:38.757Z,97382.25
2023-05-13T16:42:41.386Z,97384.13
2023-05-13T16:46:44.310Z,97385.06
2023-05-13T16:50:48.206Z,97390.28
2023-05-13T16:54:51.131Z,97394.03
2023-05-13T16:58:53.983Z,97401.97
2023-05-13T17:02:56.726Z,97398.75
2023-05-13T17:07:00.903Z,97395.56
2023-05-13T17:11:03.561Z,97400.81
2023-05-13T17:15:07.270Z,97399.56
2023-05-13T17:19:09.959Z,97399.63
2023-05-13T17:23:13.998Z,97398.91
2023-05-13T17:27:16.655Z,97399.03
2023-05-13T17:31:20.936Z,97403.72
2023-05-13T17:35:23.540Z,97405.09
2023-05-13T17:39:27.502Z,97403.03
2023-05-13T17:43:30.348Z,97406.72
2023-05-13T17:47:33.540Z,97414.97
2023-05-13T17:51:36.205Z,97418.31
2023-05-13T17:55:40.160Z,97414.59
2023-05-13T17:59:43.410Z,97423.91
2023-05-13T18:03:46.012Z,97415.94
2023-05-13T18:07:48.629Z,97417.78
2023-05-13T18:11:52.573Z,97421.00
2023-05-13T18:15:55.555Z,97417.53
2023-05-13T18:19:58.386Z,97427.31
2023-05-13T18:24:01.163Z,97433.66
2023-05-13T18:28:05.581Z,97433.16
2023-05-13T18:32:08.457Z,97440.16
2023-05-13T18:36:11.108Z,97436.44
2023-05-13T18:40:13.965Z,97444.72
2023-05-13T18:44:18.040Z,97442.81
2023-05-13T18:48:20.739Z,97450.72
2023-05-13T18:52:23.366Z,97447.41
2023-05-13T18:56:26.262Z,97454.81
2023-05-13T19:00:30.162Z,97461.41
2023-05-13T19:04:32.892Z,97464.72
2023-05-13T19:08:35.651Z,97475.56
2023-05-13T19:12:38.237Z,97475.13
2023-05-13T19:16:42.274Z,97483.28
2023-05-13T19:20:46.368Z,97486.59
2023-05-13T19:24:49.017Z,97486.22
2023-05-13T19:28:51.650Z,97487.97
2023-05-13T19:32:55.963Z,97494.66
2023-05-13T19:36:58.779Z,97483.41
2023-05-13T19:41:01.717Z,97484.78
2023-05-13T19:45:06.280Z,97491.28
2023-05-13T19:49:10.279Z,97489.84
2023-05-13T19:53:13.528Z,97487.38
2023-05-13T19:57:16.344Z,97493.09
2023-05-13T20:01:19.180Z,97493.94
2023-05-13T20:05:23.220Z,97495.50
2023-05-13T20:09:26.845Z,97487.50
2023-05-13T20:13:29.409Z,97480.06
2023-05-13T20:17:32.160Z,97477.53
2023-05-13T20:21:36.294Z,97477.66
2023-05-13T20:25:38.883Z,97482.63
2023-05-13T20:29:44.345Z,97484.28
2023-05-13T20:33:46.931Z,97496.94
2023-05-13T20:37:50.861Z,97497.03
2023-05-13T20:41:53.560Z,97489.31
2023-05-13T20:45:56.413Z,97498.97
2023-05-13T20:49:59.054Z,97498.75
2023-05-13T20:54:02.991Z,97489.41
2023-05-13T20:58:05.553Z,97484.00
2023-05-13T21:02:08.281Z,97489.63
2023-05-13T21:06:11.335Z,97484.28
2023-05-13T21:10:16.087Z,97468.84
2023-05-13T21:14:18.696Z,97473.00
2023-05-13T21:18:21.300Z,97470.50
2023-05-13T21:22:23.918Z,97471.56
2023-05-13T21:26:27.875Z,97469.91
2023-05-13T21:30:32.102Z,97462.63
2023-05-13T21:34:34.659Z,97471.25
2023-05-13T21:38:37.226Z,97459.16
2023-05-13T21:42:41.201Z,97455.53
2023-05-13T21:46:43.787Z,97455.06
2023-05-13T21:50:46.380Z,97475.59
2023-05-13T21:54:48.937Z,97461.47
2023-05-13T21:58:52.844Z,97460.66
2023-05-13T22:06:59.833Z,97457.63
2023-05-13T22:11:02.385Z,97456.44
2023-05-13T22:15:07.680Z,97446.09
2023-05-13T22:19:10.469Z,97448.22
2023-05-13T22:23:13.245Z,97440.09
2023-05-13T22:27:15.896Z,97440.31
2023-05-13T22:31:19.926Z,97444.75
2023-05-13T22:35:22.546Z,97445.84
2023-05-13T22:39:26.580Z,97445.47
2023-05-13T22:43:29.202Z,97439.06
2023-05-13T22:47:33.138Z,97433.25
2023-05-13T22:51:35.730Z,97436.59
2023-05-13T22:55:38.512Z,97430.22
2023-05-13T22:59:41.256Z,97434.38
2023-05-13T23:03:45.370Z,97435.47
2023-05-13T23:07:48.013Z,97428.22
2023-05-13T23:11:50.594Z,97429.50
2023-05-13T23:15:53.469Z,97424.78
2023-05-13T23:19:57.559Z,97422.97
2023-05-13T23:24:00.175Z,97415.50
2023-05-13T23:28:03.461Z,97415.72
2023-05-13T23:32:07.147Z,97413.25
2023-05-13T23:36:11.335Z,97414.28
2023-05-13T23:40:14.615Z,97411.16
2023-05-13T23:44:17.330Z,97417.34
2023-05-13T23:48:19.923Z,97421.28
2023-05-13T23:52:24.066Z,97410.00
2023-05-13T23:56:26.700Z,97405.47
